sensor_id;sensor_type;location;lat;lon;timestamp;pressure;altitude;pressure_sealevel;temperature;humidity
23166;BME280;11751;42.700;24.170;2023-12-22T00:01:25;92479.63;;;-0.48;100.00
23166;BME280;11751;42.700;24.170;2023-12-22T00:03:50;92480.06;;;-0.44;100.00
23166;BME280;11751;42.700;24.170;2023-12-22T00:06:16;92470.97;;;-0.39;100.00
23166;BME280;11751;42.700;24.170;2023-12-22T00:08:41;92464.00;;;-0.40;100.00
23166;BME280;11751;42.700;24.170;2023-12-22T00:11:07;92472.88;;;-0.47;100.00
23166;BME280;11751;42.700;24.170;2023-12-22T00:13:32;92460.63;;;-0.46;100.00
23166;BME280;11751;42.700;24.170;2023-12-22T00:15:59;92459.34;;;-0.32;100.00
23166;BME280;11751;42.700;24.170;2023-12-22T00:18:24;92464.84;;;-0.32;100.00
23166;BME280;11751;42.700;24.170;2023-12-22T00:20:49;92460.97;;;-0.24;100.00
23166;BME280;11751;42.700;24.170;2023-12-22T00:23:15;92471.19;;;-0.24;100.00
23166;BME280;11751;42.700;24.170;2023-12-22T00:25:40;92465.47;;;-0.39;100.00
23166;BME280;11751;42.700;24.170;2023-12-22T00:28:06;92455.34;;;-0.31;100.00
23166;BME280;11751;42.700;24.170;2023-12-22T00:30:31;92465.09;;;-0.17;100.00
23166;BME280;11751;42.700;24.170;2023-12-22T00:32:56;92465.72;;;-0.11;100.00
23166;BME280;11751;42.700;24.170;2023-12-22T00:35:22;92457.25;;;-0.26;100.00
23166;BME280;11751;42.700;24.170;2023-12-22T00:37:47;92453.44;;;-0.36;100.00
23166;BME280;11751;42.700;24.170;2023-12-22T00:40:12;92451.50;;;-0.41;100.00
23166;BME280;11751;42.700;24.170;2023-12-22T00:42:38;92446.66;;;-0.48;100.00
23166;BME280;11751;42.700;24.170;2023-12-22T00:45:04;92438.00;;;-0.39;100.00
23166;BME280;11751;42.700;24.170;2023-12-22T00:47:29;92439.69;;;-0.36;100.00
23166;BME280;11751;42.700;24.170;2023-12-22T00:49:55;92434.97;;;-0.67;100.00
23166;BME280;11751;42.700;24.170;2023-12-22T00:52:20;92429.53;;;-0.54;100.00
23166;BME280;11751;42.700;24.170;2023-12-22T00:54:46;92421.06;;;-0.43;100.00
23166;BME280;11751;42.700;24.170;2023-12-22T00:57:12;92418.75;;;-0.39;100.00
23166;BME280;11751;42.700;24.170;2023-12-22T00:59:38;92407.75;;;-0.39;100.00
23166;BME280;11751;42.700;24.170;2023-12-22T01:02:07;92415.56;;;-0.43;100.00
23166;BME280;11751;42.700;24.170;2023-12-22T01:04:33;92415.78;;;-0.41;100.00
23166;BME280;11751;42.700;24.170;2023-12-22T01:06:58;92402.78;;;-0.28;100.00
23166;BME280;11751;42.700;24.170;2023-12-22T01:09:23;92392.22;;;-0.24;100.00
23166;BME280;11751;42.700;24.170;2023-12-22T01:11:49;92401.09;;;-0.18;100.00
23166;BME280;11751;42.700;24.170;2023-12-22T01:14:14;92390.81;;;-0.04;100.00
23166;BME280;11751;42.700;24.170;2023-12-22T01:16:40;92386.69;;;0.02;100.00
23166;BME280;11751;42.700;24.170;2023-12-22T01:19:05;92384.81;;;-0.16;100.00
23166;BME280;11751;42.700;24.170;2023-12-22T01:21:31;92387.66;;;-0.21;100.00
23166;BME280;11751;42.700;24.170;2023-12-22T01:23:56;92375.59;;;-0.05;100.00
23166;BME280;11751;42.700;24.170;2023-12-22T01:26:24;92373.91;;;-0.08;100.00
23166;BME280;11751;42.700;24.170;2023-12-22T01:28:49;92360.59;;;-0.17;100.00
23166;BME280;11751;42.700;24.170;2023-12-22T01:31:14;92341.06;;;0.06;100.00
23166;BME280;11751;42.700;24.170;2023-12-22T01:33:40;92350.59;;;0.05;100.00
23166;BME280;11751;42.700;24.170;2023-12-22T01:36:05;92345.03;;;-0.02;100.00
23166;BME280;11751;42.700;24.170;2023-12-22T01:38:31;92333.69;;;0.01;100.00
23166;BME280;11751;42.700;24.170;2023-12-22T01:40:56;92340.63;;;0.15;100.00
23166;BME280;11751;42.700;24.170;2023-12-22T01:43:21;92334.50;;;0.22;100.00
23166;BME280;11751;42.700;24.170;2023-12-22T01:45:53;92355.53;;;0.33;100.00
23166;BME280;11751;42.700;24.170;2023-12-22T01:48:21;92363.31;;;0.42;100.00
23166;BME280;11751;42.700;24.170;2023-12-22T01:50:49;92342.69;;;0.35;100.00
23166;BME280;11751;42.700;24.170;2023-12-22T01:53:16;92360.47;;;0.34;100.00
23166;BME280;11751;42.700;24.170;2023-12-22T01:55:42;92359.25;;;0.22;100.00
23166;BME280;11751;42.700;24.170;2023-12-22T01:58:07;92355.63;;;0.27;100.00
23166;BME280;11751;42.700;24.170;2023-12-22T02:00:34;92356.34;;;-0.05;100.00
23166;BME280;11751;42.700;24.170;2023-12-22T02:03:00;92362.47;;;0.00;100.00
23166;BME280;11751;42.700;24.170;2023-12-22T02:05:25;92351.25;;;0.11;100.00
23166;BME280;11751;42.700;24.170;2023-12-22T02:07:51;92362.03;;;0.09;100.00
23166;BME280;11751;42.700;24.170;2023-12-22T02:10:16;92346.13;;;-0.31;100.00
23166;BME280;11751;42.700;24.170;2023-12-22T02:12:42;92348.50;;;-0.14;100.00
23166;BME280;11751;42.700;24.170;2023-12-22T02:15:08;92339.97;;;-0.11;100.00
23166;BME280;11751;42.700;24.170;2023-12-22T02:17:46;92366.91;;;-0.09;100.00
23166;BME280;11751;42.700;24.170;2023-12-22T02:20:13;92338.03;;;-0.03;100.00
23166;BME280;11751;42.700;24.170;2023-12-22T02:22:39;92348.09;;;-0.05;100.00
23166;BME280;11751;42.700;24.170;2023-12-22T02:25:05;92359.06;;;0.07;100.00
23166;BME280;11751;42.700;24.170;2023-12-22T02:27:49;92346.50;;;-0.01;100.00
23166;BME280;11751;42.700;24.170;2023-12-22T02:30:26;92345.19;;;0.13;100.00
23166;BME280;11751;42.700;24.170;2023-12-22T02:32:59;92335.81;;;-0.04;100.00
23166;BME280;11751;42.700;24.170;2023-12-22T02:35:26;92347.09;;;0.18;100.00
23166;BME280;11751;42.700;24.170;2023-12-22T02:37:56;92342.97;;;0.11;100.00
23166;BME280;11751;42.700;24.170;2023-12-22T02:40:23;92331.09;;;0.29;100.00
23166;BME280;11751;42.700;24.170;2023-12-22T02:42:49;92330.16;;;0.47;100.00
23166;BME280;11751;42.700;24.170;2023-12-22T02:45:17;92320.72;;;0.56;100.00
23166;BME280;11751;42.700;24.170;2023-12-22T02:47:44;92322.94;;;0.57;100.00
23166;BME280;11751;42.700;24.170;2023-12-22T02:50:10;92335.91;;;0.36;100.00
23166;BME280;11751;42.700;24.170;2023-12-22T02:52:37;92317.63;;;0.39;100.00
23166;BME280;11751;42.700;24.170;2023-12-22T02:55:04;92324.78;;;0.42;100.00
23166;BME280;11751;42.700;24.170;2023-12-22T02:57:30;92327.03;;;0.43;100.00
23166;BME280;11751;42.700;24.170;2023-12-22T02:59:56;92314.47;;;0.55;100.00
23166;BME280;11751;42.700;24.170;2023-12-22T03:02:21;92313.94;;;0.77;100.00
23166;BME280;11751;42.700;24.170;2023-12-22T03:04:47;92312.00;;;0.85;100.00
23166;BME280;11751;42.700;24.170;2023-12-22T03:07:12;92306.31;;;0.83;100.00
23166;BME280;11751;42.700;24.170;2023-12-22T03:09:39;92311.81;;;0.83;100.00
23166;BME280;11751;42.700;24.170;2023-12-22T03:12:06;92310.38;;;0.89;100.00
23166;BME280;11751;42.700;24.170;2023-12-22T03:14:32;92306.69;;;0.87;100.00
23166;BME280;11751;42.700;24.170;2023-12-22T03:17:06;92320.19;;;0.98;100.00
23166;BME280;11751;42.700;24.170;2023-12-22T03:19:32;92304.25;;;1.04;100.00
23166;BME280;11751;42.700;24.170;2023-12-22T03:21:58;92303.19;;;1.07;100.00
23166;BME280;11751;42.700;24.170;2023-12-22T03:24:24;92294.72;;;1.05;100.00
23166;BME280;11751;42.700;24.170;2023-12-22T03:26:50;92303.97;;;1.15;100.00
23166;BME280;11751;42.700;24.170;2023-12-22T03:29:17;92297.13;;;1.08;100.00
23166;BME280;11751;42.700;24.170;2023-12-22T03:31:43;92307.63;;;0.89;100.00
23166;BME280;11751;42.700;24.170;2023-12-22T03:34:09;92300.91;;;0.98;100.00
23166;BME280;11751;42.700;24.170;2023-12-22T03:36:34;92291.66;;;0.88;100.00
23166;BME280;11751;42.700;24.170;2023-12-22T03:38:59;92280.72;;;1.03;100.00
23166;BME280;11751;42.700;24.170;2023-12-22T03:41:25;92286.53;;;0.92;100.00
23166;BME280;11751;42.700;24.170;2023-12-22T03:43:50;92284.84;;;0.89;100.00
23166;BME280;11751;42.700;24.170;2023-12-22T03:46:16;92276.25;;;0.92;100.00
23166;BME280;11751;42.700;24.170;2023-12-22T03:48:41;92296.19;;;1.06;100.00
23166;BME280;11751;42.700;24.170;2023-12-22T03:51:07;92282.41;;;1.06;100.00
23166;BME280;11751;42.700;24.170;2023-12-22T03:53:33;92275.94;;;1.24;100.00
23166;BME280;11751;42.700;24.170;2023-12-22T03:55:58;92278.41;;;1.35;100.00
23166;BME280;11751;42.700;24.170;2023-12-22T03:58:23;92263.03;;;1.47;100.00
23166;BME280;11751;42.700;24.170;2023-12-22T04:00:51;92268.91;;;1.43;100.00
23166;BME280;11751;42.700;24.170;2023-12-22T04:03:16;92270.03;;;1.48;100.00
23166;BME280;11751;42.700;24.170;2023-12-22T04:05:42;92268.03;;;1.56;100.00
23166;BME280;11751;42.700;24.170;2023-12-22T04:08:07;92266.03;;;1.56;100.00
23166;BME280;11751;42.700;24.170;2023-12-22T04:10:33;92267.13;;;1.53;100.00
23166;BME280;11751;42.700;24.170;2023-12-22T04:12:58;92257.44;;;1.32;100.00
23166;BME280;11751;42.700;24.170;2023-12-22T04:15:24;92289.53;;;1.50;100.00
23166;BME280;11751;42.700;24.170;2023-12-22T04:17:49;92277.94;;;1.51;100.00
23166;BME280;11751;42.700;24.170;2023-12-22T04:20:15;92272.50;;;1.31;100.00
23166;BME280;11751;42.700;24.170;2023-12-22T04:22:41;92277.38;;;1.45;100.00
23166;BME280;11751;42.700;24.170;2023-12-22T04:25:07;92273.28;;;1.39;100.00
23166;BME280;11751;42.700;24.170;2023-12-22T04:27:33;92272.78;;;1.20;100.00
23166;BME280;11751;42.700;24.170;2023-12-22T04:29:59;92279.03;;;1.20;100.00
23166;BME280;11751;42.700;24.170;2023-12-22T04:32:24;92265.00;;;1.39;100.00
23166;BME280;11751;42.700;24.170;2023-12-22T04:34:50;92264.31;;;1.46;100.00
23166;BME280;11751;42.700;24.170;2023-12-22T04:37:15;92265.50;;;1.30;100.00
23166;BME280;11751;42.700;24.170;2023-12-22T04:39:40;92264.03;;;1.29;100.00
23166;BME280;11751;42.700;24.170;2023-12-22T04:42:06;92263.13;;;1.34;100.00
23166;BME280;11751;42.700;24.170;2023-12-22T04:44:31;92263.91;;;1.14;100.00
23166;BME280;11751;42.700;24.170;2023-12-22T04:46:56;92270.81;;;1.28;100.00
23166;BME280;11751;42.700;24.170;2023-12-22T04:49:22;92271.03;;;1.30;100.00
23166;BME280;11751;42.700;24.170;2023-12-22T04:51:47;92273.88;;;1.17;100.00
23166;BME280;11751;42.700;24.170;2023-12-22T04:54:13;92268.91;;;0.95;100.00
23166;BME280;11751;42.700;24.170;2023-12-22T04:56:38;92252.88;;;1.14;100.00
23166;BME280;11751;42.700;24.170;2023-12-22T04:59:03;92258.81;;;1.18;100.00
23166;BME280;11751;42.700;24.170;2023-12-22T05:01:29;92256.34;;;1.35;100.00
23166;BME280;11751;42.700;24.170;2023-12-22T05:03:54;92268.47;;;1.32;100.00
23166;BME280;11751;42.700;24.170;2023-12-22T05:06:20;92256.25;;;1.20;100.00
23166;BME280;11751;42.700;24.170;2023-12-22T05:08:45;92259.34;;;1.44;100.00
23166;BME280;11751;42.700;24.170;2023-12-22T05:11:12;92251.69;;;1.58;100.00
23166;BME280;11751;42.700;24.170;2023-12-22T05:13:37;92250.28;;;1.71;100.00
23166;BME280;11751;42.700;24.170;2023-12-22T05:16:03;92250.47;;;1.73;100.00
23166;BME280;11751;42.700;24.170;2023-12-22T05:18:30;92255.47;;;1.75;100.00
23166;BME280;11751;42.700;24.170;2023-12-22T05:20:55;92260.13;;;1.87;100.00
23166;BME280;11751;42.700;24.170;2023-12-22T05:23:21;92263.75;;;1.82;100.00
23166;BME280;11751;42.700;24.170;2023-12-22T05:25:46;92252.97;;;1.92;100.00
23166;BME280;11751;42.700;24.170;2023-12-22T05:28:12;92252.22;;;1.91;100.00
23166;BME280;11751;42.700;24.170;2023-12-22T05:30:37;92262.47;;;1.76;100.00
23166;BME280;11751;42.700;24.170;2023-12-22T05:33:03;92257.78;;;1.64;100.00
23166;BME280;11751;42.700;24.170;2023-12-22T05:35:28;92261.34;;;1.79;100.00
23166;BME280;11751;42.700;24.170;2023-12-22T05:37:53;92266.22;;;1.93;100.00
23166;BME280;11751;42.700;24.170;2023-12-22T05:40:19;92260.72;;;2.01;100.00
23166;BME280;11751;42.700;24.170;2023-12-22T05:42:44;92249.91;;;1.67;100.00
23166;BME280;11751;42.700;24.170;2023-12-22T05:45:10;92253.31;;;1.88;100.00
23166;BME280;11751;42.700;24.170;2023-12-22T05:47:36;92254.47;;;2.00;100.00
23166;BME280;11751;42.700;24.170;2023-12-22T05:50:02;92270.69;;;2.04;100.00
23166;BME280;11751;42.700;24.170;2023-12-22T05:52:27;92268.84;;;2.06;100.00
23166;BME280;11751;42.700;24.170;2023-12-22T05:54:53;92278.22;;;2.03;100.00
23166;BME280;11751;42.700;24.170;2023-12-22T05:57:19;92271.09;;;2.15;100.00
23166;BME280;11751;42.700;24.170;2023-12-22T05:59:45;92271.28;;;2.17;100.00
23166;BME280;11751;42.700;24.170;2023-12-22T06:02:10;92269.59;;;2.14;100.00
23166;BME280;11751;42.700;24.170;2023-12-22T06:04:36;92265.91;;;2.12;100.00
23166;BME280;11751;42.700;24.170;2023-12-22T06:07:01;92262.63;;;2.21;100.00
23166;BME280;11751;42.700;24.170;2023-12-22T06:09:26;92262.31;;;2.32;100.00
23166;BME280;11751;42.700;24.170;2023-12-22T06:11:52;92268.91;;;2.29;100.00
23166;BME280;11751;42.700;24.170;2023-12-22T06:14:18;92269.47;;;2.27;100.00
23166;BME280;11751;42.700;24.170;2023-12-22T06:16:43;92260.06;;;2.23;100.00
23166;BME280;11751;42.700;24.170;2023-12-22T06:19:09;92245.72;;;2.24;100.00
23166;BME280;11751;42.700;24.170;2023-12-22T06:21:38;92258.25;;;2.33;100.00
23166;BME280;11751;42.700;24.170;2023-12-22T06:24:05;92266.53;;;2.40;100.00
23166;BME280;11751;42.700;24.170;2023-12-22T06:26:30;92256.06;;;2.46;100.00
23166;BME280;11751;42.700;24.170;2023-12-22T06:28:56;92264.16;;;2.44;100.00
23166;BME280;11751;42.700;24.170;2023-12-22T06:31:21;92265.06;;;2.32;100.00
23166;BME280;11751;42.700;24.170;2023-12-22T06:33:48;92266.53;;;2.40;100.00
23166;BME280;11751;42.700;24.170;2023-12-22T06:36:24;92262.69;;;2.43;100.00
23166;BME280;11751;42.700;24.170;2023-12-22T06:38:51;92251.66;;;2.51;100.00
23166;BME280;11751;42.700;24.170;2023-12-22T06:43:45;92257.38;;;2.60;100.00
23166;BME280;11751;42.700;24.170;2023-12-22T06:46:20;92256.81;;;2.54;100.00
23166;BME280;11751;42.700;24.170;2023-12-22T06:48:48;92247.63;;;2.52;100.00
23166;BME280;11751;42.700;24.170;2023-12-22T06:51:27;92261.25;;;2.57;100.00
23166;BME280;11751;42.700;24.170;2023-12-22T06:53:53;92256.28;;;2.55;100.00
23166;BME280;11751;42.700;24.170;2023-12-22T06:56:24;92255.72;;;2.57;100.00
23166;BME280;11751;42.700;24.170;2023-12-22T06:58:51;92258.69;;;2.66;100.00
23166;BME280;11751;42.700;24.170;2023-12-22T07:01:18;92245.94;;;2.49;100.00
23166;BME280;11751;42.700;24.170;2023-12-22T07:03:45;92248.00;;;2.48;100.00
23166;BME280;11751;42.700;24.170;2023-12-22T07:06:10;92247.81;;;2.61;100.00
23166;BME280;11751;42.700;24.170;2023-12-22T07:08:36;92251.72;;;2.80;100.00
23166;BME280;11751;42.700;24.170;2023-12-22T07:11:02;92257.25;;;2.88;100.00
23166;BME280;11751;42.700;24.170;2023-12-22T07:13:27;92249.50;;;2.94;100.00
23166;BME280;11751;42.700;24.170;2023-12-22T07:15:52;92253.94;;;2.97;100.00
23166;BME280;11751;42.700;24.170;2023-12-22T07:18:18;92255.75;;;3.02;100.00
23166;BME280;11751;42.700;24.170;2023-12-22T07:20:43;92255.03;;;3.09;100.00
23166;BME280;11751;42.700;24.170;2023-12-22T07:23:10;92255.03;;;3.09;100.00
23166;BME280;11751;42.700;24.170;2023-12-22T07:25:37;92257.97;;;3.18;100.00
23166;BME280;11751;42.700;24.170;2023-12-22T07:28:04;92260.56;;;3.24;100.00
23166;BME280;11751;42.700;24.170;2023-12-22T07:30:30;92266.81;;;3.32;100.00
23166;BME280;11751;42.700;24.170;2023-12-22T07:32:55;92257.97;;;3.26;100.00
23166;BME280;11751;42.700;24.170;2023-12-22T07:35:20;92254.66;;;3.35;100.00
23166;BME280;11751;42.700;24.170;2023-12-22T07:37:46;92249.13;;;3.35;100.00
23166;BME280;11751;42.700;24.170;2023-12-22T07:40:12;92249.13;;;3.42;100.00
23166;BME280;11751;42.700;24.170;2023-12-22T07:42:37;92248.75;;;3.45;100.00
23166;BME280;11751;42.700;24.170;2023-12-22T07:45:04;92248.75;;;3.45;100.00
23166;BME280;11751;42.700;24.170;2023-12-22T07:47:31;92262.00;;;3.54;100.00
23166;BME280;11751;42.700;24.170;2023-12-22T07:49:57;92260.53;;;3.61;100.00
23166;BME280;11751;42.700;24.170;2023-12-22T07:52:22;92265.28;;;3.68;100.00
23166;BME280;11751;42.700;24.170;2023-12-22T07:54:48;92270.06;;;3.67;100.00
23166;BME280;11751;42.700;24.170;2023-12-22T07:57:13;92273.22;;;3.79;100.00
23166;BME280;11751;42.700;24.170;2023-12-22T07:59:39;92266.00;;;3.83;100.00
23166;BME280;11751;42.700;24.170;2023-12-22T08:02:04;92267.47;;;3.84;100.00
23166;BME280;11751;42.700;24.170;2023-12-22T08:04:30;92273.72;;;3.85;100.00
23166;BME280;11751;42.700;24.170;2023-12-22T08:06:55;92266.00;;;3.83;100.00
23166;BME280;11751;42.700;24.170;2023-12-22T08:09:21;92275.19;;;3.93;100.00
23166;BME280;11751;42.700;24.170;2023-12-22T08:11:48;92272.63;;;3.95;100.00
23166;BME280;11751;42.700;24.170;2023-12-22T08:14:17;92284.78;;;4.00;100.00
23166;BME280;11751;42.700;24.170;2023-12-22T08:16:43;92288.47;;;4.02;100.00
23166;BME280;11751;42.700;24.170;2023-12-22T08:19:09;92295.09;;;4.07;100.00
23166;BME280;11751;42.700;24.170;2023-12-22T08:21:35;92285.69;;;4.10;100.00
23166;BME280;11751;42.700;24.170;2023-12-22T08:24:01;92294.31;;;4.14;100.00
23166;BME280;11751;42.700;24.170;2023-12-22T08:26:26;92292.47;;;4.16;100.00
23166;BME280;11751;42.700;24.170;2023-12-22T08:28:52;92288.41;;;4.17;100.00
23166;BME280;11751;42.700;24.170;2023-12-22T08:31:17;92294.31;;;4.21;100.00
23166;BME280;11751;42.700;24.170;2023-12-22T08:33:43;92294.66;;;4.25;100.00
23166;BME280;11751;42.700;24.170;2023-12-22T08:36:10;92299.63;;;4.34;100.00
23166;BME280;11751;42.700;24.170;2023-12-22T08:38:37;92295.00;;;4.29;100.00
23166;BME280;11751;42.700;24.170;2023-12-22T08:41:06;92297.25;;;4.23;100.00
23166;BME280;11751;42.700;24.170;2023-12-22T08:43:32;92297.97;;;4.31;100.00
23166;BME280;11751;42.700;24.170;2023-12-22T08:45:58;92304.19;;;4.39;100.00
23166;BME280;11751;42.700;24.170;2023-12-22T08:48:23;92297.88;;;4.46;100.00
23166;BME280;11751;42.700;24.170;2023-12-22T08:50:48;92306.72;;;4.59;100.00
23166;BME280;11751;42.700;24.170;2023-12-22T08:53:15;92306.53;;;4.57;100.00
23166;BME280;11751;42.700;24.170;2023-12-22T08:55:40;92300.97;;;4.65;100.00
23166;BME280;11751;42.700;24.170;2023-12-22T08:58:06;92298.22;;;4.57;100.00
23166;BME280;11751;42.700;24.170;2023-12-22T09:00:31;92304.84;;;4.62;100.00
23166;BME280;11751;42.700;24.170;2023-12-22T09:02:56;92296.34;;;4.60;100.00
23166;BME280;11751;42.700;24.170;2023-12-22T09:05:22;92304.06;;;4.69;100.00
23166;BME280;11751;42.700;24.170;2023-12-22T09:07:47;92307.81;;;4.56;100.00
23166;BME280;11751;42.700;24.170;2023-12-22T09:10:13;92309.28;;;4.65;100.00
23166;BME280;11751;42.700;24.170;2023-12-22T09:12:38;92306.34;;;4.55;100.00
23166;BME280;11751;42.700;24.170;2023-12-22T09:15:04;92309.94;;;4.33;100.00
23166;BME280;11751;42.700;24.170;2023-12-22T09:17:29;92310.84;;;4.36;100.00
23166;BME280;11751;42.700;24.170;2023-12-22T09:19:54;92321.56;;;4.39;100.00
23166;BME280;11751;42.700;24.170;2023-12-22T09:22:20;92309.69;;;4.54;100.00
23166;BME280;11751;42.700;24.170;2023-12-22T09:24:46;92303.00;;;4.57;100.00
23166;BME280;11751;42.700;24.170;2023-12-22T09:27:12;92310.69;;;4.73;100.00
23166;BME280;11751;42.700;24.170;2023-12-22T09:29:38;92299.38;;;4.79;100.00
23166;BME280;11751;42.700;24.170;2023-12-22T09:32:03;92309.53;;;4.84;100.00
23166;BME280;11751;42.700;24.170;2023-12-22T09:34:29;92298.88;;;4.73;100.00
23166;BME280;11751;42.700;24.170;2023-12-22T09:36:57;92300.34;;;4.74;100.00
23166;BME280;11751;42.700;24.170;2023-12-22T09:39:22;92297.03;;;4.68;100.00
23166;BME280;11751;42.700;24.170;2023-12-22T09:41:49;92310.31;;;4.77;100.00
23166;BME280;11751;42.700;24.170;2023-12-22T09:44:18;92306.03;;;4.44;100.00
23166;BME280;11751;42.700;24.170;2023-12-22T09:46:46;92299.31;;;4.62;100.00
23166;BME280;11751;42.700;24.170;2023-12-22T09:49:13;92298.19;;;4.65;100.00
23166;BME280;11751;42.700;24.170;2023-12-22T09:51:40;92301.84;;;4.75;100.00
23166;BME280;11751;42.700;24.170;2023-12-22T09:54:06;92298.94;;;4.58;100.00
23166;BME280;11751;42.700;24.170;2023-12-22T09:56:32;92311.78;;;4.78;100.00
23166;BME280;11751;42.700;24.170;2023-12-22T09:58:59;92301.59;;;4.80;100.00
23166;BME280;11751;42.700;24.170;2023-12-22T10:01:25;92309.97;;;4.73;100.00
23166;BME280;11751;42.700;24.170;2023-12-22T10:03:52;92301.84;;;4.75;100.00
23166;BME280;11751;42.700;24.170;2023-12-22T10:06:19;92303.72;;;4.65;100.00
23166;BME280;11751;42.700;24.170;2023-12-22T10:08:46;92297.22;;;4.70;100.00
23166;BME280;11751;42.700;24.170;2023-12-22T10:11:13;92289.00;;;4.87;100.00
23166;BME280;11751;42.700;24.170;2023-12-22T10:13:41;92284.00;;;4.85;100.00
23166;BME280;11751;42.700;24.170;2023-12-22T10:16:07;92270.34;;;4.87;100.00
23166;BME280;11751;42.700;24.170;2023-12-22T10:18:33;92261.03;;;4.92;100.00
23166;BME280;11751;42.700;24.170;2023-12-22T10:20:58;92244.63;;;4.87;100.00
23166;BME280;11751;42.700;24.170;2023-12-22T10:23:24;92245.47;;;4.97;100.00
23166;BME280;11751;42.700;24.170;2023-12-22T10:25:50;92238.00;;;5.06;100.00
23166;BME280;11751;42.700;24.170;2023-12-22T10:28:16;92245.22;;;5.09;100.00
23166;BME280;11751;42.700;24.170;2023-12-22T10:30:44;92240.97;;;5.08;100.00
23166;BME280;11751;42.700;24.170;2023-12-22T10:33:11;92220.81;;;5.32;100.00
23166;BME280;11751;42.700;24.170;2023-12-22T10:35:36;92230.16;;;5.61;100.00
23166;BME280;11751;42.700;24.170;2023-12-22T10:38:03;92227.44;;;5.71;100.00
23166;BME280;11751;42.700;24.170;2023-12-22T10:40:29;92224.38;;;6.00;100.00
23166;BME280;11751;42.700;24.170;2023-12-22T10:42:54;92198.47;;;6.15;100.00
23166;BME280;11751;42.700;24.170;2023-12-22T10:45:20;92196.00;;;6.36;100.00
23166;BME280;11751;42.700;24.170;2023-12-22T10:47:48;92196.63;;;6.44;100.00
23166;BME280;11751;42.700;24.170;2023-12-22T10:50:15;92206.09;;;6.58;100.00
23166;BME280;11751;42.700;24.170;2023-12-22T10:52:41;92210.00;;;6.55;100.00
23166;BME280;11751;42.700;24.170;2023-12-22T10:55:06;92184.97;;;6.55;100.00
23166;BME280;11751;42.700;24.170;2023-12-22T10:57:32;92181.84;;;6.68;100.00
23166;BME280;11751;42.700;24.170;2023-12-22T11:00:03;92175.06;;;6.87;100.00
23166;BME280;11751;42.700;24.170;2023-12-22T11:02:32;92169.84;;;7.01;100.00
23166;BME280;11751;42.700;24.170;2023-12-22T11:05:04;92165.19;;;7.13;100.00
23166;BME280;11751;42.700;24.170;2023-12-22T11:07:33;92171.69;;;6.89;100.00
23166;BME280;11751;42.700;24.170;2023-12-22T11:10:03;92167.44;;;6.88;100.00
23166;BME280;11751;42.700;24.170;2023-12-22T11:12:31;92177.94;;;6.80;100.00
23166;BME280;11751;42.700;24.170;2023-12-22T11:14:57;92161.25;;;6.80;100.00
23166;BME280;11751;42.700;24.170;2023-12-22T11:17:23;92171.66;;;6.79;100.00
23166;BME280;11751;42.700;24.170;2023-12-22T11:19:49;92160.81;;;6.74;100.00
23166;BME280;11751;42.700;24.170;2023-12-22T11:22:18;92154.28;;;6.98;100.00
23166;BME280;11751;42.700;24.170;2023-12-22T11:24:49;92152.72;;;7.04;100.00
23166;BME280;11751;42.700;24.170;2023-12-22T11:27:19;92147.03;;;7.21;100.00
23166;BME280;11751;42.700;24.170;2023-12-22T11:29:48;92143.59;;;7.40;100.00
23166;BME280;11751;42.700;24.170;2023-12-22T11:32:18;92130.06;;;7.27;100.00
23166;BME280;11751;42.700;24.170;2023-12-22T11:34:45;92120.25;;;7.16;100.00
23166;BME280;11751;42.700;24.170;2023-12-22T11:37:12;92125.84;;;7.35;100.00
23166;BME280;11751;42.700;24.170;2023-12-22T11:39:42;92122.19;;;7.42;100.00
23166;BME280;11751;42.700;24.170;2023-12-22T11:42:16;92118.81;;;7.34;100.00
23166;BME280;11751;42.700;24.170;2023-12-22T11:44:43;92131.56;;;7.47;100.00
23166;BME280;11751;42.700;24.170;2023-12-22T11:47:10;92137.16;;;7.56;100.00
23166;BME280;11751;42.700;24.170;2023-12-22T11:49:37;92125.41;;;7.39;100.00
23166;BME280;11751;42.700;24.170;2023-12-22T11:52:29;92124.22;;;7.23;100.00
23166;BME280;11751;42.700;24.170;2023-12-22T11:54:55;92128.00;;;7.08;100.00
23166;BME280;11751;42.700;24.170;2023-12-22T11:59:53;92124.56;;;7.00;100.00
23166;BME280;11751;42.700;24.170;2023-12-22T12:02:18;92121.84;;;7.10;100.00
23166;BME280;11751;42.700;24.170;2023-12-22T12:04:47;92144.97;;;7.03;100.00
23166;BME280;11751;42.700;24.170;2023-12-22T12:07:41;92152.13;;;7.06;100.00
23166;BME280;11751;42.700;24.170;2023-12-22T12:10:13;92138.91;;;6.87;100.00
23166;BME280;11751;42.700;24.170;2023-12-22T12:13:10;92134.06;;;6.88;100.00
23166;BME280;11751;42.700;24.170;2023-12-22T12:15:36;92137.97;;;6.76;100.00
23166;BME280;11751;42.700;24.170;2023-12-22T12:18:02;92148.28;;;6.92;100.00
23166;BME280;11751;42.700;24.170;2023-12-22T12:20:28;92142.66;;;6.82;100.00
23166;BME280;11751;42.700;24.170;2023-12-22T12:22:54;92144.50;;;6.71;100.00
23166;BME280;11751;42.700;24.170;2023-12-22T12:25:22;92152.25;;;6.63;100.00
23166;BME280;11751;42.700;24.170;2023-12-22T12:28:04;92150.38;;;6.65;100.00
23166;BME280;11751;42.700;24.170;2023-12-22T12:30:32;92162.44;;;6.51;100.00
23166;BME280;11751;42.700;24.170;2023-12-22T12:33:11;92140.31;;;6.43;100.00
23166;BME280;11751;42.700;24.170;2023-12-22T12:35:41;92148.41;;;6.32;100.00
23166;BME280;11751;42.700;24.170;2023-12-22T12:38:09;92138.63;;;6.31;100.00
23166;BME280;11751;42.700;24.170;2023-12-22T12:40:39;92146.81;;;6.29;100.00
23166;BME280;11751;42.700;24.170;2023-12-22T12:43:05;92145.97;;;6.36;100.00
23166;BME280;11751;42.700;24.170;2023-12-22T12:45:30;92136.09;;;6.52;100.00
23166;BME280;11751;42.700;24.170;2023-12-22T12:47:59;92148.69;;;6.53;100.00
23166;BME280;11751;42.700;24.170;2023-12-22T12:50:26;92157.59;;;6.51;100.00